Date,TemperatureHighF,TemperatureAvgF,TemperatureLowF,DewpointHighF,DewpointAvgF,DewpointLowF,HumidityHigh,HumidityAvg,HumidityLow,PressureMaxIn,PressureMinIn,WindSpeedMaxMPH,WindSpeedAvgMPH,GustSpeedMaxMPH,PrecipitationSumIn
2013-3-1,34,33,32,33,31,29,97,93,87,0.00,40.00,8,5,18,0.06
2013-3-2,37,34,32,34,32,30,96,91,81,0.00,40.00,5,4,14,0.17
2013-3-3,45,37,33,37,34,31,96,89,73,0.00,40.00,4,2,11,0.06
2013-3-4,36,34,32,33,31,28,96,88,76,0.00,40.00,8,6,20,0.19
2013-3-5,46,37,33,35,34,32,95,86,63,0.00,40.00,8,6,19,0.13
2013-3-6,37,34,33,33,30,25,93,84,66,0.00,40.00,11,8,32,0.11
2013-3-7,37,35,34,27,25,23,75,67,61,0.00,40.00,13,11,29,0.01
2013-3-8,45,37,32,27,24,22,81,61,41,0.00,40.00,12,11,27,0.00
2013-3-9,43,35,29,27,24,22,77,65,46,0.00,40.00,11,8,27,0.00
2013-3-10,37,32,30,28,25,23,82,74,60,0.00,40.00,5,3,10,0.00
2013-3-11,43,39,34,39,34,29,92,82,74,0.00,40.00,9,7,18,0.00
2013-3-12,51,46,41,45,42,39,95,87,74,0.00,40.00,11,9,27,0.24
2013-3-13,49,44,34,48,42,30,98,94,83,0.00,40.00,11,5,26,1.11
2013-3-14,47,36,29,30,27,19,95,73,46,0.00,40.00,9,3,21,0.01
2013-3-15,35,27,21,19,14,8,78,57,32,0.00,40.00,9,5,24,0.02
2013-3-16,38,30,23,21,15,8,79,55,33,0.00,40.00,6,3,15,0.02
2013-3-17,34,27,21,11,6,-1,58,41,26,0.00,40.00,10,6,31,0.00
2013-3-18,36,26,17,16,3,-2,63,38,22,0.00,40.00,8,4,31,0.00
2013-3-19,33,28,26,27,22,10,94,79,38,0.00,40.00,13,8,31,0.00
2013-3-20,34,28,21,27,23,18,94,80,67,0.00,40.00,13,7,28,0.33
2013-3-21,41,31,27,29,12,-100,92,58,43,0.00,40.00,8,4,20,0.06
2013-3-22,47,33,24,28,15,-100,94,56,31,0.00,40.00,7,4,18,0.01
2013-3-23,45,33,27,24,15,-100,64,53,36,0.00,40.00,9,6,20,0.00
2013-3-24,49,39,29,27,26,24,85,60,40,0.00,40.00,8,5,20,0.00
2013-3-25,45,36,25,31,28,24,94,76,53,0.00,40.00,8,4,16,0.00
2013-3-26,49,39,31,30,26,22,82,60,42,0.00,40.00,10,6,22,0.00
2013-3-27,41,38,35,38,33,29,93,84,74,0.00,40.00,7,4,17,0.17
2013-3-28,46,39,31,36,33,29,93,80,63,0.00,40.00,5,3,8,0.08
2013-3-29,55,42,32,37,28,-100,96,71,48,0.00,40.00,6,2,11,0.00
2013-3-30,55,42,30,33,31,23,93,67,29,0.00,40.00,7,3,15,0.00
2013-3-31,53,40,26,37,24,-100,93,64,22,0.00,40.00,8,4,18,0.00